Terminal Aerodrome Forecast
Issued by NWS St Louis, MO

Home | Current Version | Previous Version | Text Only | Print | Product List | Glossary On
Versions: 1 2 3 4 5 6 7 8 9 10 11 12 13 14 15 16 17 18 19 20 21 22 23 24 25 26
000
FTUS43 KLSX 301500 AAA
TAFSTL
TAF AMD
KSTL 301501Z 3015/3118 18006KT P6SM BKN090
     FM301600 18008KT P6SM VCSH SCT050 OVC080
      TEMPO 3018/3022 -SHRA
     FM302300 VRB05KT P6SM BKN050
     FM310500 34009KT P6SM SCT030 BKN050
     FM311300 34018G27KT P6SM SCT030=

USA.gov is the U.S. government's official web portal to all federal, state and local government web resources and services.